sensor_id;sensor_type;location;lat;lon;timestamp;pressure;altitude;pressure_sealevel;temperature;humidity
62779;BME280;48821;48.796;2.396;2022-08-21T06:38:44;101554.09;;;19.32;60.16
62779;BME280;48821;48.796;2.396;2022-08-21T06:39:56;101546.88;;;19.34;60.26
62779;BME280;48821;48.796;2.396;2022-08-21T06:41:06;101550.31;;;19.37;59.94
62779;BME280;48821;48.796;2.396;2022-08-21T06:42:17;101552.69;;;19.41;59.62
62779;BME280;48821;48.796;2.396;2022-08-21T06:43:27;101553.56;;;19.42;59.76
62779;BME280;48821;48.796;2.396;2022-08-21T06:44:38;101550.72;;;19.45;59.82
62779;BME280;48821;48.796;2.396;2022-08-21T06:45:48;101547.97;;;19.47;58.79
62779;BME280;48821;48.796;2.396;2022-08-21T06:46:59;101550.47;;;19.50;58.84
62779;BME280;48821;48.796;2.396;2022-08-21T06:48:09;101550.28;;;19.53;58.87
62779;BME280;48821;48.796;2.396;2022-08-21T06:49:19;101542.97;;;19.56;58.95
62779;BME280;48821;48.796;2.396;2022-08-21T06:50:30;101540.13;;;19.60;59.20
62779;BME280;48821;48.796;2.396;2022-08-21T06:51:40;101529.28;;;19.63;59.41
62779;BME280;48821;48.796;2.396;2022-08-21T06:53:05;101531.66;;;19.67;59.36
62779;BME280;48821;48.796;2.396;2022-08-21T06:54:16;101529.50;;;19.74;59.21
62779;BME280;48821;48.796;2.396;2022-08-21T06:55:26;101530.06;;;19.79;59.33
62779;BME280;48821;48.796;2.396;2022-08-21T06:56:37;101531.59;;;19.84;59.36
62779;BME280;48821;48.796;2.396;2022-08-21T06:57:48;101524.19;;;19.89;59.42
62779;BME280;48821;48.796;2.396;2022-08-21T06:58:58;101530.09;;;19.94;59.50
62779;BME280;48821;48.796;2.396;2022-08-21T07:00:09;101526.41;;;19.97;58.94
62779;BME280;48821;48.796;2.396;2022-08-21T07:01:23;101533.94;;;20.05;58.46
62779;BME280;48821;48.796;2.396;2022-08-21T07:02:35;101530.13;;;20.09;58.75
62779;BME280;48821;48.796;2.396;2022-08-21T07:03:45;101529.97;;;20.12;58.61
62779;BME280;48821;48.796;2.396;2022-08-21T07:04:55;101535.88;;;20.17;58.59
62779;BME280;48821;48.796;2.396;2022-08-21T07:06:07;101530.25;;;20.22;58.65
62779;BME280;48821;48.796;2.396;2022-08-21T07:07:18;101535.31;;;20.27;58.03
62779;BME280;48821;48.796;2.396;2022-08-21T07:08:28;101530.56;;;20.32;58.32
62779;BME280;48821;48.796;2.396;2022-08-21T07:09:39;101533.00;;;20.35;57.94
62779;BME280;48821;48.796;2.396;2022-08-21T07:10:52;101529.22;;;20.39;58.00
62779;BME280;48821;48.796;2.396;2022-08-21T07:12:03;101530.72;;;20.43;57.72
62779;BME280;48821;48.796;2.396;2022-08-21T07:13:14;101527.66;;;20.50;57.95
62779;BME280;48821;48.796;2.396;2022-08-21T07:14:25;101540.53;;;20.57;57.65
62779;BME280;48821;48.796;2.396;2022-08-21T07:15:35;101527.75;;;20.63;57.81
62779;BME280;48821;48.796;2.396;2022-08-21T07:16:45;101531.66;;;20.72;57.54
62779;BME280;48821;48.796;2.396;2022-08-21T07:18:00;101532.13;;;20.78;57.63
62779;BME280;48821;48.796;2.396;2022-08-21T07:19:10;101537.06;;;20.85;57.42
62779;BME280;48821;48.796;2.396;2022-08-21T07:20:21;101541.03;;;20.92;56.87
62779;BME280;48821;48.796;2.396;2022-08-21T07:21:31;101532.72;;;20.97;56.73
62779;BME280;48821;48.796;2.396;2022-08-21T07:22:42;101530.66;;;21.02;57.06
62779;BME280;48821;48.796;2.396;2022-08-21T07:23:52;101537.41;;;21.08;56.69
62779;BME280;48821;48.796;2.396;2022-08-21T07:25:04;101524.91;;;21.08;56.89
62779;BME280;48821;48.796;2.396;2022-08-21T07:26:18;101529.09;;;21.12;56.34
62779;BME280;48821;48.796;2.396;2022-08-21T07:27:30;101535.94;;;21.17;56.66
62779;BME280;48821;48.796;2.396;2022-08-21T07:28:41;101528.66;;;21.19;56.17
62779;BME280;48821;48.796;2.396;2022-08-21T07:29:51;101538.22;;;21.23;56.67
62779;BME280;48821;48.796;2.396;2022-08-21T07:31:03;101527.41;;;21.24;56.02
62779;BME280;48821;48.796;2.396;2022-08-21T07:32:14;101535.31;;;21.26;55.50
62779;BME280;48821;48.796;2.396;2022-08-21T07:33:26;101529.97;;;21.26;55.04
62779;BME280;48821;48.796;2.396;2022-08-21T07:34:37;101535.31;;;21.26;55.01
62779;BME280;48821;48.796;2.396;2022-08-21T07:35:47;101536.09;;;21.28;54.90
62779;BME280;48821;48.796;2.396;2022-08-21T07:36:58;101531.59;;;21.29;55.44
62779;BME280;48821;48.796;2.396;2022-08-21T07:38:08;101531.50;;;21.30;55.40
62779;BME280;48821;48.796;2.396;2022-08-21T07:39:19;101531.50;;;21.30;55.16
62779;BME280;48821;48.796;2.396;2022-08-21T07:40:29;101526.16;;;21.30;55.23
62779;BME280;48821;48.796;2.396;2022-08-21T07:41:40;101527.84;;;21.31;54.98
62779;BME280;48821;48.796;2.396;2022-08-21T07:42:50;101530.44;;;21.33;55.04
62779;BME280;48821;48.796;2.396;2022-08-21T07:44:01;101525.00;;;21.34;55.36
62779;BME280;48821;48.796;2.396;2022-08-21T07:45:14;101526.72;;;21.35;55.04
62779;BME280;48821;48.796;2.396;2022-08-21T07:46:25;101525.66;;;21.38;55.26
62779;BME280;48821;48.796;2.396;2022-08-21T07:47:36;101528.97;;;21.42;54.99
62779;BME280;48821;48.796;2.396;2022-08-21T07:48:48;101530.47;;;21.46;54.86
62779;BME280;48821;48.796;2.396;2022-08-21T07:49:58;101526.66;;;21.50;54.15
62779;BME280;48821;48.796;2.396;2022-08-21T07:51:11;101530.94;;;21.53;54.58
62779;BME280;48821;48.796;2.396;2022-08-21T07:52:22;101527.94;;;21.57;54.53
62779;BME280;48821;48.796;2.396;2022-08-21T07:53:35;101525.06;;;21.61;54.48
62779;BME280;48821;48.796;2.396;2022-08-21T07:54:45;101515.88;;;21.65;54.57
62779;BME280;48821;48.796;2.396;2022-08-21T07:55:59;101526.25;;;21.69;54.29
62779;BME280;48821;48.796;2.396;2022-08-21T07:57:09;101521.53;;;21.73;54.43
62779;BME280;48821;48.796;2.396;2022-08-21T07:58:20;101522.19;;;21.77;54.43
62779;BME280;48821;48.796;2.396;2022-08-21T07:59:30;101519.31;;;21.80;54.28
62779;BME280;48821;48.796;2.396;2022-08-21T08:00:41;101523.47;;;21.84;54.21
62779;BME280;48821;48.796;2.396;2022-08-21T08:01:51;101519.78;;;21.87;54.15
62779;BME280;48821;48.796;2.396;2022-08-21T08:03:01;101522.25;;;21.90;53.83
62779;BME280;48821;48.796;2.396;2022-08-21T08:04:12;101520.31;;;21.92;54.01
62779;BME280;48821;48.796;2.396;2022-08-21T08:05:29;101520.09;;;21.95;53.65
62779;BME280;48821;48.796;2.396;2022-08-21T08:06:40;101512.81;;;21.97;53.17
62779;BME280;48821;48.796;2.396;2022-08-21T08:07:50;101510.88;;;21.99;53.59
62779;BME280;48821;48.796;2.396;2022-08-21T08:09:01;101516.03;;;22.02;53.60
62779;BME280;48821;48.796;2.396;2022-08-21T08:10:13;101514.94;;;22.05;53.58
62779;BME280;48821;48.796;2.396;2022-08-21T08:11:24;101506.81;;;22.07;53.40
62779;BME280;48821;48.796;2.396;2022-08-21T08:12:35;101510.97;;;22.11;53.19
62779;BME280;48821;48.796;2.396;2022-08-21T08:13:49;101506.16;;;22.16;53.99
62779;BME280;48821;48.796;2.396;2022-08-21T08:15:00;101513.88;;;22.21;53.34
62779;BME280;48821;48.796;2.396;2022-08-21T08:16:11;101516.13;;;22.27;53.84
62779;BME280;48821;48.796;2.396;2022-08-21T08:17:22;101514.06;;;22.31;52.96
62779;BME280;48821;48.796;2.396;2022-08-21T08:18:33;101507.53;;;22.35;53.17
62779;BME280;48821;48.796;2.396;2022-08-21T08:19:43;101510.84;;;22.39;53.18
62779;BME280;48821;48.796;2.396;2022-08-21T08:20:54;101507.97;;;22.42;52.60
62779;BME280;48821;48.796;2.396;2022-08-21T08:22:18;101512.00;;;22.47;52.93
62779;BME280;48821;48.796;2.396;2022-08-21T08:23:29;101507.28;;;22.51;52.68
62779;BME280;48821;48.796;2.396;2022-08-21T08:24:40;101506.97;;;22.56;52.84
62779;BME280;48821;48.796;2.396;2022-08-21T08:25:51;101503.06;;;22.60;53.17
62779;BME280;48821;48.796;2.396;2022-08-21T08:27:01;101508.22;;;22.63;52.47
62779;BME280;48821;48.796;2.396;2022-08-21T08:28:12;101507.88;;;22.68;52.58
62779;BME280;48821;48.796;2.396;2022-08-21T08:29:22;101504.16;;;22.70;52.64
62779;BME280;48821;48.796;2.396;2022-08-21T08:30:33;101502.97;;;22.75;52.20
62779;BME280;48821;48.796;2.396;2022-08-21T08:31:43;101507.16;;;22.79;52.10
62779;BME280;48821;48.796;2.396;2022-08-21T08:32:53;101509.47;;;22.84;52.49
62779;BME280;48821;48.796;2.396;2022-08-21T08:34:04;101503.78;;;22.88;51.94
62779;BME280;48821;48.796;2.396;2022-08-21T08:35:15;101506.25;;;22.91;51.91
62779;BME280;48821;48.796;2.396;2022-08-21T08:36:34;101498.94;;;22.93;51.83
62779;BME280;48821;48.796;2.396;2022-08-21T08:37:45;101504.91;;;22.97;51.70
62779;BME280;48821;48.796;2.396;2022-08-21T08:38:55;101504.69;;;23.00;51.79
62779;BME280;48821;48.796;2.396;2022-08-21T08:40:11;101500.81;;;23.04;51.49
62779;BME280;48821;48.796;2.396;2022-08-21T08:41:22;101499.84;;;23.06;51.53
62779;BME280;48821;48.796;2.396;2022-08-21T08:42:35;101504.84;;;23.10;52.06
62779;BME280;48821;48.796;2.396;2022-08-21T08:43:52;101499.28;;;23.13;51.36
62779;BME280;48821;48.796;2.396;2022-08-21T08:45:08;101500.75;;;23.18;51.33
62779;BME280;48821;48.796;2.396;2022-08-21T08:47:49;101501.25;;;23.23;51.45
62779;BME280;48821;48.796;2.396;2022-08-21T08:49:08;101501.78;;;23.28;51.16
62779;BME280;48821;48.796;2.396;2022-08-21T08:50:28;101500.78;;;23.29;51.65
62779;BME280;48821;48.796;2.396;2022-08-21T08:51:57;101502.16;;;23.35;51.53
62779;BME280;48821;48.796;2.396;2022-08-21T08:53:31;101500.34;;;23.35;51.14
62779;BME280;48821;48.796;2.396;2022-08-21T08:54:47;101492.88;;;23.39;51.29
62779;BME280;48821;48.796;2.396;2022-08-21T08:56:02;101499.13;;;23.40;51.19
62779;BME280;48821;48.796;2.396;2022-08-21T08:57:18;101496.22;;;23.43;50.77
62779;BME280;48821;48.796;2.396;2022-08-21T08:59:44;101489.75;;;23.45;50.77
62779;BME280;48821;48.796;2.396;2022-08-21T09:00:57;101493.06;;;23.49;50.46
62779;BME280;48821;48.796;2.396;2022-08-21T09:02:11;101492.97;;;23.51;50.49
62779;BME280;48821;48.796;2.396;2022-08-21T09:03:23;101488.34;;;23.53;50.41
62779;BME280;48821;48.796;2.396;2022-08-21T09:04:34;101482.97;;;23.53;50.37
62779;BME280;48821;48.796;2.396;2022-08-21T09:05:57;101488.09;;;23.56;50.10
62779;BME280;48821;48.796;2.396;2022-08-21T09:07:19;101487.97;;;23.57;50.39
62779;BME280;48821;48.796;2.396;2022-08-21T09:08:50;101488.59;;;23.61;50.04
62779;BME280;48821;48.796;2.396;2022-08-21T09:12:53;101488.00;;;23.69;50.06
62779;BME280;48821;48.796;2.396;2022-08-21T09:14:16;101478.97;;;23.70;49.94
62779;BME280;48821;48.796;2.396;2022-08-21T09:17:09;101478.63;;;23.75;49.38
62779;BME280;48821;48.796;2.396;2022-08-21T09:18:38;101478.25;;;23.79;49.91
62779;BME280;48821;48.796;2.396;2022-08-21T09:26:19;101470.59;;;23.98;49.36
62779;BME280;48821;48.796;2.396;2022-08-21T09:27:30;101467.78;;;23.99;49.07
62779;BME280;48821;48.796;2.396;2022-08-21T09:28:42;101463.13;;;24.01;48.97
62779;BME280;48821;48.796;2.396;2022-08-21T09:29:54;101465.69;;;24.03;49.13
62779;BME280;48821;48.796;2.396;2022-08-21T09:31:15;101462.91;;;24.04;48.95
62779;BME280;48821;48.796;2.396;2022-08-21T09:32:28;101452.91;;;24.07;48.45
62779;BME280;48821;48.796;2.396;2022-08-21T09:33:38;101450.94;;;24.09;49.24
62779;BME280;48821;48.796;2.396;2022-08-21T09:35:22;101448.97;;;24.11;48.88
62779;BME280;48821;48.796;2.396;2022-08-21T09:37:55;101455.84;;;24.15;48.65
62779;BME280;48821;48.796;2.396;2022-08-21T09:39:09;101450.47;;;24.15;48.71
62779;BME280;48821;48.796;2.396;2022-08-21T09:41:45;101450.19;;;24.18;48.18
62779;BME280;48821;48.796;2.396;2022-08-21T09:42:58;101451.78;;;24.21;48.38
62779;BME280;48821;48.796;2.396;2022-08-21T09:44:08;101455.47;;;24.20;48.51
62779;BME280;48821;48.796;2.396;2022-08-21T09:45:19;101449.94;;;24.21;48.57
62779;BME280;48821;48.796;2.396;2022-08-21T09:46:29;101454.22;;;24.24;48.50
62779;BME280;48821;48.796;2.396;2022-08-21T09:47:40;101460.47;;;24.24;48.35
62779;BME280;48821;48.796;2.396;2022-08-21T09:48:54;101453.50;;;24.22;48.32
62779;BME280;48821;48.796;2.396;2022-08-21T09:50:16;101454.34;;;24.22;48.32
62779;BME280;48821;48.796;2.396;2022-08-21T09:51:30;101467.56;;;24.25;48.45
62779;BME280;48821;48.796;2.396;2022-08-21T09:52:48;101463.03;;;24.26;48.14
62779;BME280;48821;48.796;2.396;2022-08-21T09:55:25;101465.59;;;24.27;47.97
62779;BME280;48821;48.796;2.396;2022-08-21T09:57:00;101461.94;;;24.28;48.19
62779;BME280;48821;48.796;2.396;2022-08-21T09:58:35;101462.91;;;24.27;47.72
62779;BME280;48821;48.796;2.396;2022-08-21T09:59:47;101462.91;;;24.27;48.20
62779;BME280;48821;48.796;2.396;2022-08-21T10:01:00;101460.97;;;24.30;47.74
62779;BME280;48821;48.796;2.396;2022-08-21T10:02:37;101463.66;;;24.30;47.99
62779;BME280;48821;48.796;2.396;2022-08-21T10:03:49;101458.28;;;24.30;48.10
62779;BME280;48821;48.796;2.396;2022-08-21T10:05:03;101451.06;;;24.30;47.68
62779;BME280;48821;48.796;2.396;2022-08-21T10:06:24;101450.97;;;24.32;48.16
62779;BME280;48821;48.796;2.396;2022-08-21T10:07:37;101443.75;;;24.32;47.80
62779;BME280;48821;48.796;2.396;2022-08-21T10:08:48;101444.47;;;24.34;47.58
62779;BME280;48821;48.796;2.396;2022-08-21T10:10:49;101442.53;;;24.36;47.48
62779;BME280;48821;48.796;2.396;2022-08-21T10:11:50;101438.00;;;24.37;47.50
62779;BME280;48821;48.796;2.396;2022-08-21T10:13:29;101436.03;;;24.39;47.34
62779;BME280;48821;48.796;2.396;2022-08-21T10:15:01;101438.84;;;24.37;47.75
62779;BME280;48821;48.796;2.396;2022-08-21T10:17:38;101431.41;;;24.41;46.97
62779;BME280;48821;48.796;2.396;2022-08-21T10:20:47;101427.00;;;24.40;46.82
62779;BME280;48821;48.796;2.396;2022-08-21T10:22:12;101432.38;;;24.40;47.03
62779;BME280;48821;48.796;2.396;2022-08-21T10:25:19;101422.09;;;24.45;47.24
62779;BME280;48821;48.796;2.396;2022-08-21T10:26:55;101427.22;;;24.48;47.22
62779;BME280;48821;48.796;2.396;2022-08-21T10:28:22;101413.56;;;24.52;47.44
62779;BME280;48821;48.796;2.396;2022-08-21T10:30:16;101414.75;;;24.59;47.24
62779;BME280;48821;48.796;2.396;2022-08-21T10:31:46;101409.94;;;24.63;47.60
62779;BME280;48821;48.796;2.396;2022-08-21T10:33:38;101416.81;;;24.67;47.45
62779;BME280;48821;48.796;2.396;2022-08-21T10:35:13;101407.34;;;24.72;46.84
62779;BME280;48821;48.796;2.396;2022-08-21T10:36:33;101408.06;;;24.75;47.11
62779;BME280;48821;48.796;2.396;2022-08-21T10:39:31;101403.16;;;24.80;46.71
62779;BME280;48821;48.796;2.396;2022-08-21T10:41:08;101401.94;;;24.84;46.61
62779;BME280;48821;48.796;2.396;2022-08-21T10:42:25;101406.09;;;24.88;46.96
62779;BME280;48821;48.796;2.396;2022-08-21T10:45:20;101401.16;;;24.93;46.87
62779;BME280;48821;48.796;2.396;2022-08-21T10:46:53;101392.81;;;24.97;46.40
62779;BME280;48821;48.796;2.396;2022-08-21T10:48:07;101384.75;;;24.97;46.09
62779;BME280;48821;48.796;2.396;2022-08-21T10:51:02;101399.69;;;25.01;46.17
62779;BME280;48821;48.796;2.396;2022-08-21T10:53:59;101390.13;;;25.08;45.95
62779;BME280;48821;48.796;2.396;2022-08-21T10:55:18;101382.78;;;25.10;45.37
62779;BME280;48821;48.796;2.396;2022-08-21T10:56:32;101378.09;;;25.12;46.05
62779;BME280;48821;48.796;2.396;2022-08-21T10:57:49;101384.81;;;25.18;45.69
62779;BME280;48821;48.796;2.396;2022-08-21T10:59:20;101381.00;;;25.21;45.74
62779;BME280;48821;48.796;2.396;2022-08-21T11:00:39;101377.19;;;25.23;45.58
62779;BME280;48821;48.796;2.396;2022-08-21T11:02:00;101376.91;;;25.26;45.05
62779;BME280;48821;48.796;2.396;2022-08-21T11:03:22;101370.31;;;25.31;45.24
62779;BME280;48821;48.796;2.396;2022-08-21T11:04:49;101373.81;;;25.31;45.41
62779;BME280;48821;48.796;2.396;2022-08-21T11:06:23;101376.25;;;25.34;44.80
62779;BME280;48821;48.796;2.396;2022-08-21T11:07:43;101381.38;;;25.37;45.44
62779;BME280;48821;48.796;2.396;2022-08-21T11:09:02;101387.31;;;25.41;44.86
62779;BME280;48821;48.796;2.396;2022-08-21T11:10:25;101383.53;;;25.44;44.55
62779;BME280;48821;48.796;2.396;2022-08-21T11:11:41;101380.56;;;25.47;44.71
62779;BME280;48821;48.796;2.396;2022-08-21T11:15:15;101378.06;;;25.55;44.78
62779;BME280;48821;48.796;2.396;2022-08-21T11:16:42;101379.34;;;25.61;44.97
62779;BME280;48821;48.796;2.396;2022-08-21T11:19:17;101377.97;;;25.67;44.39
62779;BME280;48821;48.796;2.396;2022-08-21T11:20:43;101369.63;;;25.70;44.40
62779;BME280;48821;48.796;2.396;2022-08-21T11:22:04;101381.84;;;25.74;44.60
62779;BME280;48821;48.796;2.396;2022-08-21T11:24:03;101378.91;;;25.77;44.50
62779;BME280;48821;48.796;2.396;2022-08-21T11:25:07;101383.28;;;25.78;44.94
62779;BME280;48821;48.796;2.396;2022-08-21T11:26:30;101384.13;;;25.79;43.79
62779;BME280;48821;48.796;2.396;2022-08-21T11:27:46;101392.91;;;25.81;44.04
62779;BME280;48821;48.796;2.396;2022-08-21T11:29:06;101385.44;;;25.84;43.90
62779;BME280;48821;48.796;2.396;2022-08-21T11:30:19;101391.53;;;25.87;44.48
62779;BME280;48821;48.796;2.396;2022-08-21T11:36:22;101395.66;;;25.91;44.07
62779;BME280;48821;48.796;2.396;2022-08-21T11:37:54;101396.50;;;25.91;43.95
62779;BME280;48821;48.796;2.396;2022-08-21T11:40:49;101395.13;;;25.97;43.27
62779;BME280;48821;48.796;2.396;2022-08-21T11:46:28;101401.78;;;26.03;43.87
62779;BME280;48821;48.796;2.396;2022-08-21T11:50:39;101387.63;;;26.11;43.69
62779;BME280;48821;48.796;2.396;2022-08-21T11:56:00;101390.22;;;26.22;43.30
62779;BME280;48821;48.796;2.396;2022-08-21T11:57:21;101396.03;;;26.27;43.22
62779;BME280;48821;48.796;2.396;2022-08-21T11:58:41;101392.19;;;26.30;43.90
62779;BME280;48821;48.796;2.396;2022-08-21T12:00:01;101384.69;;;26.34;43.87
62779;BME280;48821;48.796;2.396;2022-08-21T12:01:18;101391.50;;;26.38;44.02
62779;BME280;48821;48.796;2.396;2022-08-21T12:02:34;101385.84;;;26.41;43.63
62779;BME280;48821;48.796;2.396;2022-08-21T12:04:01;101380.78;;;26.48;43.80
62779;BME280;48821;48.796;2.396;2022-08-21T12:05:25;101372.41;;;26.51;44.15
62779;BME280;48821;48.796;2.396;2022-08-21T12:06:39;101378.22;;;26.56;43.19
62779;BME280;48821;48.796;2.396;2022-08-21T12:08:44;101380.66;;;26.59;43.73
62779;BME280;48821;48.796;2.396;2022-08-21T12:09:35;101372.13;;;26.64;43.49
62779;BME280;48821;48.796;2.396;2022-08-21T12:10:59;101377.22;;;26.67;43.44
62779;BME280;48821;48.796;2.396;2022-08-21T12:12:23;101372.41;;;26.71;43.79
62779;BME280;48821;48.796;2.396;2022-08-21T12:13:38;101374.84;;;26.74;43.40
62779;BME280;48821;48.796;2.396;2022-08-21T12:14:51;101369.28;;;26.76;43.32
62779;BME280;48821;48.796;2.396;2022-08-21T12:16:15;101376.38;;;26.77;43.27
62779;BME280;48821;48.796;2.396;2022-08-21T12:17:40;101365.28;;;26.80;43.81
62779;BME280;48821;48.796;2.396;2022-08-21T12:19:09;101369.56;;;26.82;43.38
62779;BME280;48821;48.796;2.396;2022-08-21T12:21:30;101355.78;;;26.85;43.61
62779;BME280;48821;48.796;2.396;2022-08-21T12:22:41;101355.63;;;26.87;43.52
62779;BME280;48821;48.796;2.396;2022-08-21T12:24:03;101354.38;;;26.91;42.58
62779;BME280;48821;48.796;2.396;2022-08-21T12:25:18;101358.75;;;26.92;43.01
62779;BME280;48821;48.796;2.396;2022-08-21T12:26:30;101362.88;;;26.96;42.71
62779;BME280;48821;48.796;2.396;2022-08-21T12:29:12;101351.09;;;26.97;42.98
62779;BME280;48821;48.796;2.396;2022-08-21T12:30:35;101343.69;;;27.00;42.68
62779;BME280;48821;48.796;2.396;2022-08-21T12:31:52;101351.66;;;27.01;42.72
62779;BME280;48821;48.796;2.396;2022-08-21T12:33:17;101343.41;;;27.03;42.47
62779;BME280;48821;48.796;2.396;2022-08-21T12:34:35;101340.56;;;27.04;43.19
62779;BME280;48821;48.796;2.396;2022-08-21T12:35:48;101345.81;;;27.06;43.07
62779;BME280;48821;48.796;2.396;2022-08-21T12:37:03;101337.41;;;27.09;42.79
62779;BME280;48821;48.796;2.396;2022-08-21T12:38:18;101340.97;;;27.10;42.78
62779;BME280;48821;48.796;2.396;2022-08-21T12:39:32;101341.84;;;27.10;43.25
62779;BME280;48821;48.796;2.396;2022-08-21T12:42:04;101335.16;;;27.14;43.09
62779;BME280;48821;48.796;2.396;2022-08-21T12:43:21;101339.59;;;27.15;43.71
62779;BME280;48821;48.796;2.396;2022-08-21T12:44:43;101338.56;;;27.16;42.92
62779;BME280;48821;48.796;2.396;2022-08-21T12:45:55;101340.13;;;27.19;42.83
62779;BME280;48821;48.796;2.396;2022-08-21T12:47:16;101345.41;;;27.21;43.12
62779;BME280;48821;48.796;2.396;2022-08-21T12:50:08;101331.03;;;27.20;43.30
62779;BME280;48821;48.796;2.396;2022-08-21T12:51:26;101334.59;;;27.21;42.98
62779;BME280;48821;48.796;2.396;2022-08-21T12:54:22;101337.13;;;27.22;42.50
62779;BME280;48821;48.796;2.396;2022-08-21T12:55:34;101329.03;;;27.22;43.38
62779;BME280;48821;48.796;2.396;2022-08-21T12:56:55;101329.91;;;27.23;42.29
62779;BME280;48821;48.796;2.396;2022-08-21T12:58:06;101328.78;;;27.15;42.11
62779;BME280;48821;48.796;2.396;2022-08-21T12:59:19;101338.72;;;27.05;42.24
62779;BME280;48821;48.796;2.396;2022-08-21T13:00:30;101331.34;;;26.97;42.38
62779;BME280;48821;48.796;2.396;2022-08-21T13:01:49;101332.06;;;26.89;42.03
62779;BME280;48821;48.796;2.396;2022-08-21T13:03:01;101322.31;;;26.78;42.09
62779;BME280;48821;48.796;2.396;2022-08-21T13:04:19;101337.53;;;26.69;41.85
62779;BME280;48821;48.796;2.396;2022-08-21T13:05:35;101327.16;;;26.55;42.36
62779;BME280;48821;48.796;2.396;2022-08-21T13:06:48;101324.31;;;26.46;42.91
62779;BME280;48821;48.796;2.396;2022-08-21T13:08:06;101318.47;;;26.41;43.27
62779;BME280;48821;48.796;2.396;2022-08-21T13:09:29;101322.72;;;26.34;43.29
62779;BME280;48821;48.796;2.396;2022-08-21T13:10:41;101319.59;;;26.28;42.78
62779;BME280;48821;48.796;2.396;2022-08-21T13:11:52;101322.88;;;26.22;43.24
62779;BME280;48821;48.796;2.396;2022-08-21T13:13:06;101322.88;;;26.12;42.73
62779;BME280;48821;48.796;2.396;2022-08-21T13:14:38;101332.63;;;26.03;42.95
62779;BME280;48821;48.796;2.396;2022-08-21T13:15:56;101332.47;;;25.95;43.14
62779;BME280;48821;48.796;2.396;2022-08-21T13:17:10;101334.13;;;25.86;43.33
62779;BME280;48821;48.796;2.396;2022-08-21T13:18:23;101333.69;;;25.81;43.38
62779;BME280;48821;48.796;2.396;2022-08-21T13:19:34;101332.66;;;25.72;43.57
62779;BME280;48821;48.796;2.396;2022-08-21T13:20:45;101332.81;;;25.70;44.29
62779;BME280;48821;48.796;2.396;2022-08-21T13:21:55;101328.53;;;25.68;44.57
62779;BME280;48821;48.796;2.396;2022-08-21T13:24:37;101330.84;;;25.72;44.31
62779;BME280;48821;48.796;2.396;2022-08-21T13:25:47;101325.31;;;25.74;44.21
62779;BME280;48821;48.796;2.396;2022-08-21T13:26:57;101328.03;;;25.74;43.82
62779;BME280;48821;48.796;2.396;2022-08-21T13:28:10;101324.84;;;25.69;43.73
62779;BME280;48821;48.796;2.396;2022-08-21T13:29:28;101322.31;;;25.67;44.33
62779;BME280;48821;48.796;2.396;2022-08-21T13:30:42;101325.41;;;25.62;43.63
62779;BME280;48821;48.796;2.396;2022-08-21T13:31:56;101319.44;;;25.59;43.99
62779;BME280;48821;48.796;2.396;2022-08-21T13:33:07;101322.28;;;25.57;44.42
62779;BME280;48821;48.796;2.396;2022-08-21T13:34:25;101312.88;;;25.51;44.01
62779;BME280;48821;48.796;2.396;2022-08-21T13:37:17;101324.50;;;25.52;44.65
62779;BME280;48821;48.796;2.396;2022-08-21T13:38:31;101317.81;;;25.46;44.64
62779;BME280;48821;48.796;2.396;2022-08-21T13:39:49;101309.44;;;25.39;44.39
62779;BME280;48821;48.796;2.396;2022-08-21T13:42:26;101332.34;;;25.34;44.27
62779;BME280;48821;48.796;2.396;2022-08-21T13:43:36;101326.25;;;25.32;44.65
62779;BME280;48821;48.796;2.396;2022-08-21T13:44:47;101325.28;;;25.33;44.20
62779;BME280;48821;48.796;2.396;2022-08-21T13:46:00;101319.31;;;25.29;44.59
62779;BME280;48821;48.796;2.396;2022-08-21T13:47:13;101314.78;;;25.29;44.45
62779;BME280;48821;48.796;2.396;2022-08-21T13:48:28;101323.88;;;25.28;44.31
62779;BME280;48821;48.796;2.396;2022-08-21T13:49:43;101316.91;;;25.26;44.26
62779;BME280;48821;48.796;2.396;2022-08-21T13:50:54;101319.84;;;25.23;44.71
62779;BME280;48821;48.796;2.396;2022-08-21T13:52:15;101315.44;;;25.22;44.51
62779;BME280;48821;48.796;2.396;2022-08-21T13:53:30;101315.59;;;25.20;44.05
62779;BME280;48821;48.796;2.396;2022-08-21T13:54:41;101309.63;;;25.16;44.46
62779;BME280;48821;48.796;2.396;2022-08-21T13:55:53;101308.91;;;25.14;44.29
62779;BME280;48821;48.796;2.396;2022-08-21T13:57:04;101305.97;;;25.17;43.95
62779;BME280;48821;48.796;2.396;2022-08-21T13:59:52;101297.75;;;25.19;44.67
62779;BME280;48821;48.796;2.396;2022-08-21T14:01:02;101297.75;;;25.19;44.29
62779;BME280;48821;48.796;2.396;2022-08-21T14:02:21;101303.97;;;25.20;43.81
62779;BME280;48821;48.796;2.396;2022-08-21T14:03:42;101303.28;;;25.17;44.31
62779;BME280;48821;48.796;2.396;2022-08-21T14:04:57;101306.94;;;25.16;43.82
62779;BME280;48821;48.796;2.396;2022-08-21T14:06:18;101310.88;;;25.12;43.99
62779;BME280;48821;48.796;2.396;2022-08-21T14:07:33;101304.53;;;25.13;44.24
62779;BME280;48821;48.796;2.396;2022-08-21T14:08:50;101302.56;;;25.15;44.65
62779;BME280;48821;48.796;2.396;2022-08-21T14:10:05;101291.53;;;25.19;45.07
62779;BME280;48821;48.796;2.396;2022-08-21T14:11:16;101293.94;;;25.22;44.20
62779;BME280;48821;48.796;2.396;2022-08-21T14:12:31;101285.59;;;25.25;44.40
62779;BME280;48821;48.796;2.396;2022-08-21T14:13:51;101292.41;;;25.29;44.31
62779;BME280;48821;48.796;2.396;2022-08-21T14:15:06;101290.31;;;25.33;44.16
62779;BME280;48821;48.796;2.396;2022-08-21T14:16:26;101300.22;;;25.32;44.09
62779;BME280;48821;48.796;2.396;2022-08-21T14:17:40;101295.09;;;25.29;43.60
62779;BME280;48821;48.796;2.396;2022-08-21T14:20:26;101286.19;;;25.28;44.60
62779;BME280;48821;48.796;2.396;2022-08-21T14:21:41;101292.16;;;25.32;43.83